Time;durP1;ratioP1;P1;durP2;ratioP2;P2;SDS_P1;SDS_P2;PMS_P1;PMS_P2;Temp;Humidity;BMP_temperature;BMP_pressure;BME280_temperature;BME280_humidity;BME280_pressure;Samples;Min_cycle;Max_cycle;Signal;HPM_P1;HPM_P2
2022/04/02 00:01:42;;;;;;;;;4.00;4.00;20.10;99.90;;;;;;5072102;28;8950;-49
2022/04/02 00:04:14;;;;;;;;;2.50;2.50;20.00;99.90;;;;;;5080054;28;9012;-49
2022/04/02 00:06:44;;;;;;;;;8.67;4.00;19.90;99.90;;;;;;5082640;28;8854;-48
2022/04/02 00:09:15;;;;;;;;;4.00;3.33;19.90;99.90;;;;;;5081040;28;8945;-47
2022/04/02 00:11:47;;;;;;;;;6.33;5.67;19.80;99.90;;;;;;5086882;28;9098;-50
2022/04/02 00:14:18;;;;;;;;;3.00;3.00;19.70;99.90;;;;;;5074274;28;9146;-47
2022/04/02 00:16:49;;;;;;;;;5.00;3.00;19.70;99.90;;;;;;5066538;28;9833;-50
2022/04/02 00:19:20;;;;;;;;;9.33;4.67;19.60;99.90;;;;;;5080946;28;9123;-48
2022/04/02 00:21:51;;;;;;;;;3.67;3.00;19.50;99.90;;;;;;5085656;28;9241;-46
2022/04/02 00:24:21;;;;;;;;;5.00;3.67;19.50;99.90;;;;;;5063440;28;9870;-50
2022/04/02 00:26:52;;;;;;;;;2.33;2.33;19.40;99.90;;;;;;5071121;28;9019;-48
2022/04/02 00:29:23;;;;;;;;;1.00;1.00;19.30;99.90;;;;;;5069534;28;9414;-46
2022/04/02 00:31:54;;;;;;;;;4.00;3.00;19.20;99.90;;;;;;5059903;28;9396;-46
2022/04/02 00:34:25;;;;;;;;;3.00;3.00;19.20;99.90;;;;;;5073046;28;9314;-52
2022/04/02 00:36:55;;;;;;;;;6.33;5.00;19.20;99.90;;;;;;5074121;28;9240;-48
2022/04/02 00:39:25;;;;;;;;;4.67;4.67;19.30;99.90;;;;;;5071368;28;9688;-48
2022/04/02 00:41:55;;;;;;;;;1.67;1.67;19.20;99.90;;;;;;5073551;28;9416;-46
2022/04/02 00:44:26;;;;;;;;;5.67;4.33;19.20;99.90;;;;;;5077090;28;9474;-50
2022/04/02 00:46:57;;;;;;;;;5.00;5.00;19.10;99.90;;;;;;5066054;28;9344;-51
2022/04/02 00:49:29;;;;;;;;;5.00;4.00;19.00;99.90;;;;;;5066706;28;9850;-49
2022/04/02 00:51:59;;;;;;;;;2.67;2.67;18.90;99.90;;;;;;5065378;28;9495;-46
2022/04/02 00:54:31;;;;;;;;;3.67;3.67;18.80;99.90;;;;;;5065669;28;9373;-45
2022/04/02 00:57:02;;;;;;;;;4.33;4.33;18.80;99.90;;;;;;5078285;28;9467;-49
2022/04/02 00:59:33;;;;;;;;;4.25;4.25;18.80;99.90;;;;;;5064419;28;9539;-47
2022/04/02 01:02:06;;;;;;;;;2.50;2.50;18.60;99.90;;;;;;5062839;28;9702;-46
2022/04/02 01:04:36;;;;;;;;;5.00;5.00;18.70;99.90;;;;;;5068119;28;9671;-48
2022/04/02 01:07:11;;;;;;;;;7.75;5.75;18.70;99.90;;;;;;5061025;28;9918;-49
2022/04/02 01:09:41;;;;;;;;;3.75;3.75;18.60;99.90;;;;;;5070118;27;11030;-49
2022/04/02 01:12:14;;;;;;;;;7.00;5.00;18.40;99.90;;;;;;5061920;28;9606;-49
2022/04/02 01:14:46;;;;;;;;;6.25;6.25;18.20;99.90;;;;;;5070868;28;10023;-50
2022/04/02 01:17:31;;;;;;;;;5.00;5.00;18.30;99.90;;;;;;5063665;28;10214;-48
2022/04/02 01:20:04;;;;;;;;;6.00;5.75;18.20;99.90;;;;;;5076919;28;10169;-47
2022/04/02 01:22:37;;;;;;;;;3.50;3.50;18.10;99.90;;;;;;5071835;27;10098;-46
2022/04/02 01:25:10;;;;;;;;;7.00;6.75;18.00;99.90;;;;;;5073835;28;9955;-51
2022/04/02 01:27:47;;;;;;;;;4.50;4.50;18.00;99.90;;;;;;5069613;28;10263;-48
2022/04/02 01:30:17;;;;;;;;;6.00;5.00;17.90;99.90;;;;;;5068582;28;10010;-46
2022/04/02 01:32:49;;;;;;;;;5.00;5.00;17.90;99.90;;;;;;5079393;28;10212;-49
2022/04/02 01:35:22;;;;;;;;;4.75;4.75;18.00;99.90;;;;;;5071287;28;9917;-45
2022/04/02 01:38:06;;;;;;;;;6.00;5.00;17.90;99.90;;;;;;5060539;28;10201;-48
2022/04/02 01:40:36;;;;;;;;;4.50;4.50;17.90;99.90;;;;;;5071866;28;10197;-50
2022/04/02 01:43:10;;;;;;;;;5.00;5.00;17.80;99.90;;;;;;5072397;28;10104;-50
2022/04/02 01:45:47;;;;;;;;;8.50;5.00;17.60;99.90;;;;;;5063809;28;10300;-45
2022/04/02 01:48:24;;;;;;;;;4.00;4.00;17.50;99.90;;;;;;5061679;28;10511;-47
2022/04/02 01:51:00;;;;;;;;;9.50;9.25;17.40;99.90;;;;;;5066276;28;11163;-50
2022/04/02 01:53:32;;;;;;;;;11.00;11.00;17.30;99.90;;;;;;5086086;28;12331;-51
2022/04/02 01:56:10;;;;;;;;;18.25;14.75;17.40;99.90;;;;;;5076820;28;11422;-46
2022/04/02 01:58:45;;;;;;;;;19.25;18.25;17.40;99.90;;;;;;5081162;28;11177;-48
2022/04/02 02:01:21;;;;;;;;;26.25;24.50;17.40;99.90;;;;;;5051048;28;11490;-46
2022/04/02 02:03:52;;;;;;;;;24.50;23.00;17.40;99.90;;;;;;5069243;28;11555;-50
2022/04/02 02:06:23;;;;;;;;;25.25;23.50;17.20;99.90;;;;;;5081791;28;11459;-50
2022/04/02 02:08:57;;;;;;;;;28.75;28.25;17.20;99.90;;;;;;5076480;28;11506;-49
2022/04/02 02:11:36;;;;;;;;;20.75;20.25;17.10;99.90;;;;;;5083721;28;11508;-49
2022/04/02 02:14:21;;;;;;;;;8.00;6.75;17.00;99.90;;;;;;5086001;28;12271;-49
2022/04/02 02:17:04;;;;;;;;;9.00;7.00;16.90;99.90;;;;;;5062847;28;11051;-50
2022/04/02 02:19:35;;;;;;;;;6.00;3.75;16.80;99.90;;;;;;5074125;28;10618;-48
2022/04/02 02:22:06;;;;;;;;;5.00;5.00;16.70;99.90;;;;;;5074863;28;10581;-47
2022/04/02 02:24:38;;;;;;;;;7.00;7.00;16.70;99.90;;;;;;5070312;28;10368;-49
2022/04/02 02:27:08;;;;;;;;;6.25;6.25;16.60;99.90;;;;;;5067564;28;10562;-48
2022/04/02 02:29:39;;;;;;;;;6.25;6.00;16.60;99.90;;;;;;5067125;28;10732;-47
2022/04/02 02:32:20;;;;;;;;;7.00;7.00;16.50;99.90;;;;;;5073221;28;10896;-47
2022/04/02 02:37:45;;;;;;;;;2.75;1.75;16.60;99.90;;;;;;5069126;28;10820;-51
2022/04/02 02:40:16;;;;;;;;;6.00;6.00;16.50;99.90;;;;;;5074017;28;10669;-49
2022/04/02 02:42:47;;;;;;;;;4.75;4.75;16.30;99.90;;;;;;5069320;28;10612;-49
2022/04/02 02:45:31;;;;;;;;;6.50;6.25;16.30;99.90;;;;;;5066546;28;10714;-49
2022/04/02 02:48:05;;;;;;;;;6.00;4.50;16.30;99.90;;;;;;5060690;28;10810;-48
2022/04/02 02:50:46;;;;;;;;;3.75;3.75;16.20;99.90;;;;;;5064553;28;10464;-48
2022/04/02 02:53:19;;;;;;;;;5.50;5.50;16.10;99.90;;;;;;5081458;28;10936;-51
2022/04/02 02:55:50;;;;;;;;;6.25;6.25;16.10;99.90;;;;;;5089350;28;10895;-51
2022/04/02 02:58:22;;;;;;;;;4.75;4.75;16.10;99.90;;;;;;5077014;28;10756;-50
2022/04/02 03:00:53;;;;;;;;;5.00;3.00;16.00;99.90;;;;;;5089026;28;10798;-49
2022/04/02 03:03:27;;;;;;;;;7.00;7.00;16.00;99.90;;;;;;5076845;28;10682;-53
2022/04/02 03:06:00;;;;;;;;;5.25;4.50;16.00;99.90;;;;;;5086425;28;10873;-50
2022/04/02 03:08:38;;;;;;;;;6.25;5.75;16.00;99.90;;;;;;5074924;28;10794;-50
2022/04/02 03:11:07;;;;;;;;;6.50;5.75;16.00;99.90;;;;;;5089185;28;10819;-50
2022/04/02 03:13:39;;;;;;;;;7.00;5.25;15.90;99.90;;;;;;5065769;28;10890;-52
2022/04/02 03:16:12;;;;;;;;;8.50;6.50;15.90;99.90;;;;;;5076287;28;11042;-46
2022/04/02 03:18:50;;;;;;;;;7.50;7.50;16.00;99.90;;;;;;5073281;28;11047;-51
2022/04/02 03:21:24;;;;;;;;;5.25;5.25;15.90;99.90;;;;;;5077554;28;11000;-45
2022/04/02 03:23:54;;;;;;;;;4.25;4.25;15.90;99.90;;;;;;5073550;28;11043;-49
2022/04/02 03:26:27;;;;;;;;;4.75;4.75;15.80;99.90;;;;;;5092173;28;10800;-49
2022/04/02 03:29:05;;;;;;;;;5.00;5.00;15.80;99.90;;;;;;5071988;28;10775;-47
2022/04/02 03:31:34;;;;;;;;;8.75;6.00;15.80;99.90;;;;;;5081410;28;10871;-50
2022/04/02 03:34:08;;;;;;;;;6.50;4.75;15.70;99.90;;;;;;5087684;28;10946;-50
2022/04/02 03:36:37;;;;;;;;;1.50;1.50;15.60;99.90;;;;;;5080390;28;10832;-47
2022/04/02 03:39:08;;;;;;;;;6.25;4.50;15.70;99.90;;;;;;5074038;28;11157;-46
2022/04/02 03:41:40;;;;;;;;;8.00;7.00;15.70;99.90;;;;;;5081503;28;11851;-51
2022/04/02 03:44:12;;;;;;;;;6.25;4.00;15.60;99.90;;;;;;5075699;28;11116;-47
2022/04/02 03:49:42;;;;;;;;;7.00;6.50;15.50;99.90;;;;;;5074255;28;11102;-47
2022/04/02 03:52:15;;;;;;;;;3.25;3.25;15.40;99.90;;;;;;5079000;28;11283;-45
2022/04/02 03:54:51;;;;;;;;;6.25;6.25;15.40;99.90;;;;;;5072437;28;10886;-47
2022/04/02 03:57:22;;;;;;;;;5.50;5.50;15.40;99.90;;;;;;5085655;28;11130;-46
2022/04/02 03:59:57;;;;;;;;;7.00;5.00;15.40;99.90;;;;;;5086842;28;11075;-48
2022/04/02 04:02:26;;;;;;;;;5.00;5.00;15.30;99.90;;;;;;5083745;28;11850;-46
2022/04/02 04:04:59;;;;;;;;;6.00;6.00;15.30;99.90;;;;;;5080774;28;11822;-50
2022/04/02 04:07:30;;;;;;;;;3.25;3.25;15.20;99.90;;;;;;5090422;28;10789;-50
2022/04/02 04:10:01;;;;;;;;;5.25;5.25;15.20;99.90;;;;;;5084780;28;11707;-51
2022/04/02 04:12:35;;;;;;;;;8.50;6.00;15.20;99.90;;;;;;5085642;28;11080;-46
2022/04/02 04:15:08;;;;;;;;;5.50;5.50;15.20;99.90;;;;;;5062281;28;10972;-47
2022/04/02 04:17:41;;;;;;;;;6.25;6.25;15.20;99.90;;;;;;5057261;28;11132;-48
2022/04/02 04:20:13;;;;;;;;;6.00;6.00;15.30;99.90;;;;;;5081746;28;11057;-53
2022/04/02 04:22:44;;;;;;;;;5.00;5.00;15.30;99.90;;;;;;5084952;28;11135;-50
2022/04/02 04:25:17;;;;;;;;;6.00;6.00;15.30;99.90;;;;;;5086540;28;11719;-49
2022/04/02 04:27:48;;;;;;;;;8.25;7.00;15.30;99.90;;;;;;5077894;28;11436;-50
2022/04/02 04:30:19;;;;;;;;;8.50;7.25;15.30;99.90;;;;;;5073360;28;11180;-50
2022/04/02 04:32:49;;;;;;;;;6.00;6.00;15.20;99.90;;;;;;5076971;28;11460;-51
2022/04/02 04:35:21;;;;;;;;;7.50;6.75;15.20;99.90;;;;;;5090239;28;11058;-48
2022/04/02 04:37:52;;;;;;;;;6.25;6.25;15.20;99.90;;;;;;5070935;28;11099;-52
2022/04/02 04:40:27;;;;;;;;;6.50;4.25;15.20;99.90;;;;;;5081781;28;11119;-50
2022/04/02 04:43:00;;;;;;;;;10.75;9.50;15.20;99.90;;;;;;5069676;28;11115;-51
2022/04/02 04:45:50;;;;;;;;;4.25;4.25;15.20;99.90;;;;;;5075412;27;11498;-50
2022/04/02 04:48:23;;;;;;;;;8.50;7.00;15.10;99.90;;;;;;5053669;28;11033;-51
2022/04/02 04:50:59;;;;;;;;;6.25;6.25;15.10;99.90;;;;;;5082593;28;11603;-50
2022/04/02 04:53:34;;;;;;;;;7.25;6.75;15.00;99.90;;;;;;5075561;28;11431;-48
2022/04/02 04:56:09;;;;;;;;;4.50;4.50;15.00;99.90;;;;;;5087413;28;11438;-48
2022/04/02 04:58:40;;;;;;;;;8.25;8.25;15.00;99.90;;;;;;5082238;28;11563;-51
2022/04/02 05:01:13;;;;;;;;;5.00;5.00;15.00;99.90;;;;;;5085095;28;11650;-49
2022/04/02 05:03:44;;;;;;;;;8.00;6.75;15.00;99.90;;;;;;5083079;28;11211;-49
2022/04/02 05:06:19;;;;;;;;;7.75;5.75;15.00;99.90;;;;;;5075721;28;12332;-51
2022/04/02 05:08:54;;;;;;;;;8.25;8.00;15.00;99.90;;;;;;5072683;28;11496;-51
2022/04/02 05:11:32;;;;;;;;;6.00;6.00;15.00;99.90;;;;;;5086412;28;11449;-49
2022/04/02 05:14:04;;;;;;;;;6.50;5.50;15.00;99.90;;;;;;5078367;28;11403;-50
2022/04/02 05:16:37;;;;;;;;;5.25;5.25;15.00;99.90;;;;;;5086671;28;11184;-50
2022/04/02 05:19:12;;;;;;;;;6.00;4.00;15.00;99.90;;;;;;5064867;28;11201;-51
2022/04/02 05:21:43;;;;;;;;;8.50;7.00;15.00;99.90;;;;;;5074680;28;11451;-50
2022/04/02 05:24:17;;;;;;;;;6.00;6.00;14.90;99.90;;;;;;5075263;28;11423;-47
2022/04/02 05:26:52;;;;;;;;;7.75;6.00;14.90;99.90;;;;;;5078385;28;11420;-48
2022/04/02 05:29:25;;;;;;;;;5.75;5.75;14.90;99.90;;;;;;5074575;28;12196;-50
2022/04/02 05:31:55;;;;;;;;;8.50;5.50;14.90;99.90;;;;;;5090000;28;11477;-47
2022/04/02 05:34:26;;;;;;;;;9.25;8.00;14.80;99.90;;;;;;5082823;28;11804;-50
2022/04/02 05:37:02;;;;;;;;;7.75;6.00;14.80;99.90;;;;;;5087727;28;11462;-47
2022/04/02 05:39:34;;;;;;;;;9.50;7.00;14.80;99.90;;;;;;5071463;28;12719;-48
2022/04/02 05:42:05;;;;;;;;;10.25;9.00;14.80;99.90;;;;;;5081738;28;11453;-49
2022/04/02 05:44:37;;;;;;;;;9.25;6.00;14.80;99.90;;;;;;5047282;28;11573;-48
2022/04/02 05:47:09;;;;;;;;;5.75;5.75;14.70;99.90;;;;;;5074918;28;11492;-49
2022/04/02 05:49:48;;;;;;;;;5.25;5.25;14.70;99.90;;;;;;5077705;28;11222;-49
2022/04/02 05:52:18;;;;;;;;;6.75;6.75;14.70;99.90;;;;;;5093789;28;11426;-52
2022/04/02 05:54:49;;;;;;;;;7.00;5.50;14.70;99.90;;;;;;5075881;28;11441;-48
2022/04/02 05:57:20;;;;;;;;;9.75;6.75;14.70;99.90;;;;;;5093880;28;11451;-50
2022/04/02 05:59:52;;;;;;;;;4.25;4.25;14.70;99.90;;;;;;5072750;28;11311;-50
2022/04/02 06:02:22;;;;;;;;;6.75;6.75;14.60;99.90;;;;;;5093144;28;11461;-50
2022/04/02 06:04:53;;;;;;;;;9.75;8.25;14.70;99.90;;;;;;5076904;28;11219;-51
2022/04/02 06:07:23;;;;;;;;;5.00;5.00;14.60;99.90;;;;;;5084662;28;11214;-47
2022/04/02 06:09:56;;;;;;;;;9.25;7.75;14.60;99.90;;;;;;5078142;28;12285;-49
2022/04/02 06:12:27;;;;;;;;;10.25;8.75;14.60;99.90;;;;;;5091083;28;12202;-48
2022/04/02 06:14:59;;;;;;;;;5.75;5.25;14.60;99.90;;;;;;5081504;28;11457;-52
2022/04/02 06:17:30;;;;;;;;;7.75;5.50;14.60;99.90;;;;;;5074151;28;11487;-46
2022/04/02 06:20:01;;;;;;;;;8.25;8.25;14.60;99.90;;;;;;5074094;28;11486;-50
2022/04/02 06:22:31;;;;;;;;;6.25;5.50;14.50;99.90;;;;;;5070566;28;11465;-49
2022/04/02 06:25:01;;;;;;;;;12.75;11.00;14.50;99.90;;;;;;5072107;28;11581;-49
2022/04/02 06:27:32;;;;;;;;;8.00;8.00;14.50;99.90;;;;;;5077308;28;11661;-49
2022/04/02 06:30:04;;;;;;;;;8.25;7.75;14.40;99.90;;;;;;5086909;28;11410;-47
2022/04/02 06:32:33;;;;;;;;;8.25;7.00;14.40;99.90;;;;;;5083680;28;12639;-48
2022/04/02 06:35:05;;;;;;;;;8.75;8.75;14.40;99.90;;;;;;5082461;28;11475;-46
2022/04/02 06:37:41;;;;;;;;;8.00;7.00;14.40;99.90;;;;;;5078551;28;11643;-47
2022/04/02 06:40:12;;;;;;;;;8.00;7.25;14.40;99.90;;;;;;5081172;28;11461;-49
2022/04/02 06:42:43;;;;;;;;;7.00;6.00;14.40;99.90;;;;;;5066420;28;11462;-49
2022/04/02 06:45:23;;;;;;;;;6.50;6.50;14.30;99.90;;;;;;5072278;28;12162;-47
2022/04/02 06:47:55;;;;;;;;;10.50;8.00;14.30;99.90;;;;;;5066768;28;11498;-50
2022/04/02 06:50:25;;;;;;;;;7.50;4.00;14.30;99.90;;;;;;5071533;28;11465;-50
2022/04/02 06:52:56;;;;;;;;;7.75;7.00;14.30;99.90;;;;;;5082393;28;11444;-49
2022/04/02 06:55:32;;;;;;;;;7.75;7.50;14.20;99.90;;;;;;5072224;28;11406;-50
2022/04/02 06:58:04;;;;;;;;;9.00;8.25;14.20;99.90;;;;;;5089266;28;11423;-51
2022/04/02 07:00:34;;;;;;;;;6.75;6.75;14.20;99.90;;;;;;5084115;28;11424;-51
2022/04/02 07:03:06;;;;;;;;;10.25;6.25;14.20;99.90;;;;;;5085532;28;11458;-49
2022/04/02 07:05:38;;;;;;;;;7.00;7.00;14.10;99.90;;;;;;5084610;28;11589;-50
2022/04/02 07:08:08;;;;;;;;;7.75;6.00;14.10;99.90;;;;;;5075811;28;11574;-47
2022/04/02 07:10:39;;;;;;;;;8.75;7.25;14.10;99.90;;;;;;5091059;28;11437;-51
2022/04/02 07:13:09;;;;;;;;;6.50;6.50;14.10;99.90;;;;;;5088725;28;11471;-50
2022/04/02 07:15:41;;;;;;;;;6.25;6.25;14.10;99.90;;;;;;5069272;28;11624;-49
2022/04/02 07:18:13;;;;;;;;;7.50;7.50;14.00;99.90;;;;;;5065332;28;11446;-50
2022/04/02 07:20:44;;;;;;;;;8.25;8.25;14.00;99.90;;;;;;5078363;28;11457;-48
2022/04/02 07:23:16;;;;;;;;;7.25;5.50;14.00;99.90;;;;;;5054295;28;11489;-51
2022/04/02 07:25:49;;;;;;;;;6.00;6.00;14.00;99.90;;;;;;5069081;28;11534;-52
2022/04/02 07:28:22;;;;;;;;;9.25;9.25;14.00;99.90;;;;;;5076483;28;11430;-52
2022/04/02 07:30:52;;;;;;;;;5.25;4.00;14.00;99.90;;;;;;5069677;28;12601;-51
2022/04/02 07:33:25;;;;;;;;;9.00;9.00;14.00;99.90;;;;;;5083886;28;11507;-51
2022/04/02 07:36:05;;;;;;;;;8.25;6.75;13.90;99.90;;;;;;5069704;28;11467;-48
2022/04/02 07:38:58;;;;;;;;;9.50;6.75;13.90;99.90;;;;;;5087267;28;11463;-52
2022/04/02 07:41:50;;;;;;;;;7.25;6.50;13.90;99.90;;;;;;5075897;28;11494;-47
2022/04/02 07:44:42;;;;;;;;;6.00;6.00;13.90;99.90;;;;;;5066285;28;13529;-48
2022/04/02 07:47:15;;;;;;;;;6.00;6.00;13.80;99.90;;;;;;5075645;28;12579;-47
2022/04/02 07:49:46;;;;;;;;;6.50;6.50;13.80;99.90;;;;;;5079619;28;11467;-50
2022/04/02 07:52:19;;;;;;;;;9.00;7.50;13.80;99.90;;;;;;5084730;28;11463;-47
2022/04/02 07:54:56;;;;;;;;;8.25;6.50;13.80;99.90;;;;;;5085519;28;12118;-47
2022/04/02 07:57:41;;;;;;;;;6.00;5.25;13.80;99.90;;;;;;5093485;28;11465;-49
2022/04/02 08:00:21;;;;;;;;;5.75;4.00;13.80;99.90;;;;;;5083889;28;11476;-50
2022/04/02 08:02:51;;;;;;;;;6.00;6.00;13.80;99.90;;;;;;5075449;28;11426;-50
2022/04/02 08:05:23;;;;;;;;;7.00;7.00;13.70;99.90;;;;;;5085358;28;11482;-49
2022/04/02 08:07:58;;;;;;;;;10.75;8.00;13.70;99.90;;;;;;5072316;28;11422;-51
2022/04/02 08:10:35;;;;;;;;;7.75;6.00;13.70;99.90;;;;;;5078984;28;11454;-53
2022/04/02 08:13:06;;;;;;;;;10.25;7.75;13.70;99.90;;;;;;5086089;28;11428;-52
2022/04/02 08:15:40;;;;;;;;;5.00;5.00;13.70;99.90;;;;;;5066315;28;11478;-50
2022/04/02 08:18:20;;;;;;;;;7.75;6.50;13.60;99.90;;;;;;5075909;28;11417;-49
2022/04/02 08:20:54;;;;;;;;;6.50;6.00;13.70;99.90;;;;;;5081703;28;11445;-52
2022/04/02 08:23:32;;;;;;;;;6.00;6.00;13.70;99.90;;;;;;5075105;28;11421;-50
2022/04/02 08:26:27;;;;;;;;;6.00;6.00;13.60;99.90;;;;;;5069434;28;11785;-53
2022/04/02 08:29:26;;;;;;;;;7.25;5.50;13.60;99.90;;;;;;5068149;28;11456;-54
2022/04/02 08:32:00;;;;;;;;;8.25;6.75;13.60;99.90;;;;;;5077860;28;12300;-49
2022/04/02 08:35:10;;;;;;;;;7.50;7.50;13.60;99.90;;;;;;5070655;28;11582;-51
2022/04/02 08:38:20;;;;;;;;;7.75;7.75;13.60;99.90;;;;;;5065062;28;11457;-52
2022/04/02 08:41:19;;;;;;;;;6.00;6.00;13.60;99.90;;;;;;5074443;28;11431;-48
2022/04/02 08:44:26;;;;;;;;;5.25;5.25;13.60;99.90;;;;;;5070292;28;11457;-49
2022/04/02 08:47:30;;;;;;;;;6.00;6.00;13.50;99.90;;;;;;5087032;28;12828;-51
2022/04/02 08:50:07;;;;;;;;;10.00;8.50;13.50;99.90;;;;;;5067520;28;11458;-50
2022/04/02 08:52:53;;;;;;;;;8.50;7.50;13.50;99.90;;;;;;5073701;28;11606;-50
2022/04/02 08:55:47;;;;;;;;;10.25;7.75;13.50;99.90;;;;;;5063995;28;12236;-49
2022/04/02 08:58:24;;;;;;;;;7.25;5.25;13.50;99.90;;;;;;5076336;28;11451;-51
2022/04/02 09:01:07;;;;;;;;;6.00;6.00;13.50;99.90;;;;;;5075289;28;11476;-50
2022/04/02 09:03:55;;;;;;;;;9.50;7.75;13.40;99.90;;;;;;5072932;28;11375;-50
2022/04/02 09:06:43;;;;;;;;;9.50;7.75;13.40;99.90;;;;;;5066208;28;11437;-50
2022/04/02 09:09:51;;;;;;;;;6.25;4.75;13.40;99.90;;;;;;5081039;28;11445;-50
2022/04/02 09:12:41;;;;;;;;;5.50;5.50;13.40;99.90;;;;;;5066526;28;11459;-52
2022/04/02 09:15:16;;;;;;;;;9.25;8.00;13.40;99.90;;;;;;5068830;28;12251;-49
2022/04/02 09:18:16;;;;;;;;;8.00;8.00;13.40;99.90;;;;;;5076097;28;11481;-50
2022/04/02 09:20:57;;;;;;;;;5.00;5.00;13.40;99.90;;;;;;5079039;28;12630;-50
2022/04/02 09:23:31;;;;;;;;;7.25;6.75;13.40;99.90;;;;;;5071020;28;11415;-50
2022/04/02 09:26:53;;;;;;;;;6.75;6.75;13.40;99.90;;;;;;5070657;28;11423;-49
2022/04/02 09:29:58;;;;;;;;;7.75;6.25;13.30;99.90;;;;;;5063356;28;11668;-50
2022/04/02 09:33:06;;;;;;;;;5.25;5.25;13.30;99.90;;;;;;5068337;28;12127;-48
2022/04/02 09:36:08;;;;;;;;;5.00;5.00;13.30;99.90;;;;;;5080318;28;11513;-47
2022/04/02 09:39:04;;;;;;;;;7.00;6.00;13.30;99.90;;;;;;5063183;28;11497;-50
2022/04/02 09:41:50;;;;;;;;;7.75;4.75;13.20;99.90;;;;;;5074840;28;11494;-51
2022/04/02 09:44:39;;;;;;;;;10.00;7.00;13.20;99.90;;;;;;5075094;28;11723;-49
2022/04/02 09:47:25;;;;;;;;;4.50;4.50;13.20;99.90;;;;;;5076357;28;11469;-48
2022/04/02 09:50:07;;;;;;;;;7.50;6.00;13.10;99.90;;;;;;5074945;28;11430;-51
2022/04/02 09:52:59;;;;;;;;;5.00;5.00;13.10;99.90;;;;;;5070021;28;11485;-49
2022/04/02 09:55:36;;;;;;;;;7.25;7.25;13.10;99.90;;;;;;5077060;28;11511;-48
2022/04/02 09:58:31;;;;;;;;;7.00;6.00;13.10;99.90;;;;;;5077037;28;11531;-50
2022/04/02 10:01:11;;;;;;;;;6.75;5.00;13.10;99.90;;;;;;5067623;28;11545;-51
2022/04/02 10:04:00;;;;;;;;;4.75;4.75;13.10;99.90;;;;;;5069508;28;12298;-51
2022/04/02 10:06:42;;;;;;;;;7.00;7.00;13.10;99.90;;;;;;5074843;28;11474;-51
2022/04/02 10:09:20;;;;;;;;;5.25;5.25;13.10;99.90;;;;;;5075166;28;11729;-49
2022/04/02 10:12:05;;;;;;;;;6.50;6.50;13.00;99.90;;;;;;5072102;28;11412;-49
2022/04/02 10:14:40;;;;;;;;;6.75;5.75;13.00;99.90;;;;;;5066139;28;12540;-50
2022/04/02 10:17:13;;;;;;;;;3.50;3.50;13.00;99.90;;;;;;5070789;28;11534;-49
2022/04/02 10:19:49;;;;;;;;;6.50;6.25;13.00;99.90;;;;;;5061865;28;11558;-52
2022/04/02 10:22:48;;;;;;;;;4.00;4.00;13.00;99.90;;;;;;5073942;28;13094;-52
2022/04/02 10:25:18;;;;;;;;;4.00;3.75;12.90;99.90;;;;;;5083744;28;12291;-51
2022/04/02 10:27:49;;;;;;;;;3.50;3.00;12.90;99.90;;;;;;5083646;28;11459;-50
2022/04/02 10:30:20;;;;;;;;;7.00;5.25;12.90;99.90;;;;;;5080158;28;12101;-49
2022/04/02 10:32:51;;;;;;;;;5.00;5.00;12.90;99.90;;;;;;5076853;28;11496;-48
2022/04/02 10:35:24;;;;;;;;;7.25;7.25;12.90;99.90;;;;;;5069661;28;11512;-51
2022/04/02 10:38:09;;;;;;;;;3.00;3.00;12.90;99.90;;;;;;5064614;28;11542;-49
2022/04/02 10:40:50;;;;;;;;;9.25;7.00;12.80;99.90;;;;;;5066608;28;11691;-52
2022/04/02 10:43:30;;;;;;;;;5.25;5.25;12.80;99.90;;;;;;5070244;28;12282;-51
2022/04/02 10:46:06;;;;;;;;;4.00;4.00;12.70;99.90;;;;;;5068106;28;11499;-52
2022/04/02 10:48:42;;;;;;;;;5.50;5.50;12.70;99.90;;;;;;5068302;28;11566;-48
2022/04/02 10:51:15;;;;;;;;;4.75;4.75;12.70;99.90;;;;;;5068822;28;11528;-48
2022/04/02 10:53:45;;;;;;;;;4.75;4.75;12.70;99.90;;;;;;5069571;28;11491;-51
2022/04/02 10:56:22;;;;;;;;;4.00;4.00;12.70;99.90;;;;;;5064337;28;11597;-50
2022/04/02 10:58:54;;;;;;;;;5.75;4.50;12.60;99.90;;;;;;5070078;28;11473;-49
2022/04/02 11:01:25;;;;;;;;;3.00;3.00;12.60;99.90;;;;;;5061478;28;11475;-47
2022/04/02 11:03:57;;;;;;;;;3.75;3.75;12.60;99.90;;;;;;5074605;28;11656;-49
2022/04/02 11:06:49;;;;;;;;;6.50;3.25;12.60;99.90;;;;;;5067388;28;12470;-51
2022/04/02 11:09:28;;;;;;;;;4.25;4.25;12.60;99.90;;;;;;5073101;28;11483;-51
2022/04/02 11:12:11;;;;;;;;;3.75;2.50;12.60;99.90;;;;;;5075350;28;11539;-51
2022/04/02 11:14:42;;;;;;;;;6.00;4.00;12.60;99.90;;;;;;5066871;28;11440;-52
2022/04/02 11:17:32;;;;;;;;;5.00;5.00;12.50;99.90;;;;;;5075023;28;11654;-48
2022/04/02 11:20:14;;;;;;;;;4.25;3.25;12.60;99.90;;;;;;5067856;28;11555;-54
2022/04/02 11:22:59;;;;;;;;;5.00;3.75;12.50;99.90;;;;;;5079828;28;11510;-52
2022/04/02 11:25:35;;;;;;;;;5.75;5.75;12.50;99.90;;;;;;5082756;28;11509;-49
2022/04/02 11:28:15;;;;;;;;;4.50;4.00;12.50;99.90;;;;;;5069294;28;11507;-50
2022/04/02 11:30:47;;;;;;;;;4.25;4.25;12.50;99.90;;;;;;5065750;28;11509;-52
2022/04/02 11:33:27;;;;;;;;;3.00;3.00;12.40;99.90;;;;;;5071186;28;11535;-47
2022/04/02 11:36:09;;;;;;;;;3.00;3.00;12.40;99.90;;;;;;5069169;28;11508;-51
2022/04/02 11:38:52;;;;;;;;;6.25;6.25;12.40;99.90;;;;;;5081129;28;11685;-51
2022/04/02 11:41:27;;;;;;;;;7.50;7.50;12.40;99.90;;;;;;5071450;28;11511;-48
2022/04/02 11:44:16;;;;;;;;;11.50;10.00;12.40;99.90;;;;;;5072976;28;11504;-49
2022/04/02 11:47:01;;;;;;;;;12.67;12.67;12.30;99.90;;;;;;5073413;28;11564;-50
2022/04/02 11:49:40;;;;;;;;;19.00;19.00;12.40;99.90;;;;;;5074280;28;8836;-50
2022/04/02 11:52:13;;;;;;;;;30.00;29.33;12.40;99.90;;;;;;5074266;28;8853;-47
2022/04/02 11:55:07;;;;;;;;;34.67;33.00;12.30;99.90;;;;;;5078127;28;8861;-51
2022/04/02 11:57:56;;;;;;;;;46.67;41.33;12.30;99.90;;;;;;5076123;28;8841;-48
2022/04/02 12:00:27;;;;;;;;;53.67;45.67;12.30;99.90;;;;;;5074147;28;8869;-50
2022/04/02 12:03:00;;;;;;;;;54.67;46.67;12.30;99.90;;;;;;5075542;28;8968;-48
2022/04/02 12:05:36;;;;;;;;;53.67;46.00;12.20;99.90;;;;;;5073626;28;8846;-49
2022/04/02 12:08:07;;;;;;;;;54.67;47.00;12.20;99.90;;;;;;5077023;28;9039;-51
2022/04/02 12:10:54;;;;;;;;;53.67;44.33;12.20;99.90;;;;;;5069708;28;8865;-47
2022/04/02 12:13:24;;;;;;;;;51.00;42.33;12.20;99.90;;;;;;5082871;28;8869;-51
2022/04/02 12:16:13;;;;;;;;;47.33;41.67;12.20;99.90;;;;;;5072142;28;8984;-50
2022/04/02 12:18:57;;;;;;;;;49.67;42.67;12.10;99.90;;;;;;5072630;28;8841;-48
2022/04/02 12:21:36;;;;;;;;;42.33;38.67;12.10;99.90;;;;;;5078451;28;8839;-51
2022/04/02 12:24:07;;;;;;;;;43.67;39.67;12.10;99.90;;;;;;5084425;28;8834;-50
2022/04/02 12:26:39;;;;;;;;;35.33;32.67;12.10;99.90;;;;;;5078123;28;8877;-52
2022/04/02 12:29:19;;;;;;;;;26.00;26.00;12.10;99.90;;;;;;5074945;28;8834;-49
2022/04/02 12:31:51;;;;;;;;;25.33;25.00;12.10;99.90;;;;;;5070176;28;8888;-48
2022/04/02 12:34:26;;;;;;;;;20.00;20.00;12.10;99.90;;;;;;5065725;28;8894;-49
2022/04/02 12:37:02;;;;;;;;;16.00;16.00;12.00;99.90;;;;;;5072899;28;8865;-50
2022/04/02 12:39:36;;;;;;;;;13.33;13.33;12.00;99.90;;;;;;5075871;28;8947;-48
2022/04/02 12:42:07;;;;;;;;;10.67;10.67;12.00;99.90;;;;;;5080526;28;8855;-51
2022/04/02 12:44:38;;;;;;;;;9.33;9.33;12.00;99.90;;;;;;5081739;28;8949;-50
2022/04/02 12:47:14;;;;;;;;;10.67;10.67;12.00;99.90;;;;;;5084359;28;8822;-50
2022/04/02 12:49:44;;;;;;;;;7.00;7.00;12.00;99.90;;;;;;5070702;28;8870;-49
2022/04/02 12:52:20;;;;;;;;;8.00;8.00;12.00;99.90;;;;;;5072487;28;8861;-51
2022/04/02 12:54:52;;;;;;;;;8.67;6.67;12.00;99.90;;;;;;5074959;28;8941;-48
2022/04/02 12:57:23;;;;;;;;;8.33;8.00;12.00;99.90;;;;;;5072343;28;8847;-48
2022/04/02 12:59:57;;;;;;;;;7.75;7.75;11.90;99.90;;;;;;5071669;28;8832;-52
2022/04/02 13:02:35;;;;;;;;;8.67;8.00;11.90;99.90;;;;;;5075849;28;11504;-54
2022/04/02 13:05:14;;;;;;;;;8.67;8.67;11.90;99.90;;;;;;5070559;28;8835;-52
2022/04/02 13:08:04;;;;;;;;;13.33;13.33;11.90;99.90;;;;;;5077346;28;8859;-50
2022/04/02 13:10:42;;;;;;;;;16.33;16.33;11.90;99.90;;;;;;5066594;28;8871;-50
2022/04/02 13:13:15;;;;;;;;;20.00;18.67;11.80;99.90;;;;;;5079139;28;8857;-49
2022/04/02 13:15:54;;;;;;;;;23.00;20.67;11.80;99.90;;;;;;5075945;28;8849;-50
2022/04/02 13:21:19;;;;;;;;;25.67;25.67;11.80;99.90;;;;;;5080843;28;8840;-53
2022/04/02 13:24:26;;;;;;;;;23.00;22.00;11.80;99.90;;;;;;5073956;27;8845;-51
2022/04/02 13:27:10;;;;;;;;;39.67;34.33;11.80;99.90;;;;;;5071806;28;8842;-50
2022/04/02 13:29:58;;;;;;;;;34.00;32.33;11.80;99.90;;;;;;5073582;28;8952;-48
2022/04/02 13:32:48;;;;;;;;;31.33;30.33;11.80;99.90;;;;;;5069184;28;8810;-47
2022/04/02 13:35:37;;;;;;;;;31.67;31.00;11.80;99.90;;;;;;5070807;28;9566;-48
2022/04/02 13:38:30;;;;;;;;;30.67;30.00;11.80;99.90;;;;;;5076720;28;8961;-51
2022/04/02 13:41:03;;;;;;;;;25.67;24.33;11.80;99.90;;;;;;5080092;28;8915;-48
2022/04/02 13:43:36;;;;;;;;;26.33;25.00;11.80;99.90;;;;;;5076239;28;8858;-52